Terminal Aerodrome Forecast
Issued by NWS

Home | Current Version | Previous Version | Text Only | Print | Product List | Glossary On
Versions: 1 2 3 4 5 6 7 8 9 10 11 12 13 14 15 16 17 18 19 20 21 22
000
FTUS45 KTFX 270522
TAFLWT
TAF
KLWT 270522Z 2706/2806 07008KT 2SM -SN BR SCT009 OVC018
      TEMPO 2707/2711 3/4SM -SHSN BR BKN008
     FM271100 05007KT 6SM -SN SCT015 OVC025
      TEMPO 2711/2715 3SM -SN BR BKN012
     FM271800 10007KT P6SM VCSH SCT025 OVC040
     FM280000 13007KT P6SM SCT035 BKN050=

USA.gov is the U.S. government's official web portal to all federal, state and local government web resources and services.